Toncontín International Airport
MHTG : now visible

Airfield :











YOU CAN JOIN US ON...

 
LOGIN :

Register | Disclaimer

   EN    FR    IT 

 









Legend :    VFR   Marginal VFR   IFR   Intensive IFR   Very Intensive IFR
Visi :
Ceiling :
>= 8 km
>= 3000ft
5 to 8 km
1000 to 3000 ft
1500m to 5 km
500 to 1000 ft
800 to 1500m
200 to 500 ft
< 800m
< 200 ft
Symbols :   Thunderstorms  Fog  Heavy snow  Heavy precipitations  Wind > 20 kt






- Airport Elevation : 3294 ft
- IATA code : TGU


MHTG - Toncontín International

CURRENT METAR :
  • 272000Z 20008KT 9999 SCT030TCU FEW032CB 25/19 Q1014 A2994 N0SIG

EXPIRED METARs :
  • 271900Z 18007KT 9999 SCT030TCU FEW032CB 27/19 Q1015 A2997 N0SIG
  • 271800Z 21008KT 9999 BKN030TCU 26/20 Q1016 A3000 N0SIG

TAF TAF MHTG
Valid from the 27 at 18:00 until the 28 at 18:00 UTC


271645Z 2718/2818 16004KT 9999 SCT028CB SCT030TCU SCT080 TX27/2719Z TN17/2812Z
TEMPO 2720/2802 5000 TSRA SCT028TCU SCT030CB BKN080
BECMG 2802/2804 00000KT
BECMG 2806/2808 9999 NSW FEW008 BKN025 SCT080
BECMG 2813/2815 09004KT SCT025TCU BKN080
MHTG FIR / North America



MET'MAP, your aeronautical weather chart ! - Copyright ORBIFLY December 2007 - Disclaimer

ORBIFLY MET'MAP TEAM :

Programming & Development : Alexandra Zaïnal
Concept & original design : Baudouin d'Aumeries
Assistance for programming : Marc-Olivier Méhu
Technical & hardware support : Manuel Goepfert

Contact : metmap@orbifly.com




SOURCES & CREDITS :

   NOAA       Earth
Advisory